« Back
NWS Peachtree City, Ga » Text Product » AHN Terminal Aerodrome Forecast


Printer-friendly Version
Current Version              Previous Versions:   1  2  3  4  5  6  7  8  9  

Terminal Aerodrome Forecast

089
FTUS42 KFFC 011740
TAFAHN
TAF
KAHN 011740Z 0118/0218 23007KT P6SM VCSH SCT035 BKN080
      TEMPO 0120/0123 4SM TSRA BR BKN025CB
     FM020000 23008KT P6SM VCSH OVC040
     FM020200 24005KT P6SM SCT060 BKN250
     FM021200 22006KT P6SM SCT030 BKN150
     FM021500 22008KT P6SM SCT040 BKN150=



USA.gov is the U.S. government's official web portal to all federal, state and local government web resources and services.